sensor_id;sensor_type;location;lat;lon;timestamp;pressure;altitude;pressure_sealevel;temperature;humidity
66887;BME280;67239;51.680;5.976;2023-02-07T00:01:27;103905.34;;;0.53;100.00
66887;BME280;67239;51.680;5.976;2023-02-07T00:03:55;103906.66;;;0.46;100.00
66887;BME280;67239;51.680;5.976;2023-02-07T00:06:27;103916.03;;;0.44;100.00
66887;BME280;67239;51.680;5.976;2023-02-07T00:09:02;103905.19;;;0.37;100.00
66887;BME280;67239;51.680;5.976;2023-02-07T00:11:31;103903.81;;;0.28;100.00
66887;BME280;67239;51.680;5.976;2023-02-07T00:13:58;103909.38;;;0.20;100.00
66887;BME280;67239;51.680;5.976;2023-02-07T00:16:26;103901.91;;;0.11;99.84
66887;BME280;67239;51.680;5.976;2023-02-07T00:18:54;103912.59;;;0.02;99.95
66887;BME280;67239;51.680;5.976;2023-02-07T00:21:26;103898.31;;;-0.05;99.78
66887;BME280;67239;51.680;5.976;2023-02-07T00:23:55;103897.94;;;-0.11;99.69
66887;BME280;67239;51.680;5.976;2023-02-07T00:26:24;103896.78;;;-0.16;99.82
66887;BME280;67239;51.680;5.976;2023-02-07T00:28:53;103894.97;;;-0.17;99.92
66887;BME280;67239;51.680;5.976;2023-02-07T00:31:27;103885.41;;;-0.18;100.00
66887;BME280;67239;51.680;5.976;2023-02-07T00:33:57;103888.09;;;-0.17;100.00
66887;BME280;67239;51.680;5.976;2023-02-07T00:36:29;103890.69;;;-0.17;100.00
66887;BME280;67239;51.680;5.976;2023-02-07T00:38:58;103882.69;;;-0.20;100.00
66887;BME280;67239;51.680;5.976;2023-02-07T00:41:28;103877.63;;;-0.18;100.00
66887;BME280;67239;51.680;5.976;2023-02-07T00:43:55;103880.31;;;-0.17;100.00
66887;BME280;67239;51.680;5.976;2023-02-07T00:46:22;103888.16;;;-0.15;100.00
66887;BME280;67239;51.680;5.976;2023-02-07T00:48:53;103882.19;;;-0.14;100.00
66887;BME280;67239;51.680;5.976;2023-02-07T00:51:20;103876.03;;;-0.16;100.00
66887;BME280;67239;51.680;5.976;2023-02-07T00:53:50;103872.44;;;-0.18;100.00
66887;BME280;67239;51.680;5.976;2023-02-07T00:56:26;103875.63;;;-0.22;100.00
66887;BME280;67239;51.680;5.976;2023-02-07T00:58:57;103894.41;;;-0.26;100.00
66887;BME280;67239;51.680;5.976;2023-02-07T01:01:25;103885.41;;;-0.32;100.00
66887;BME280;67239;51.680;5.976;2023-02-07T01:03:55;103883.13;;;-0.40;100.00
66887;BME280;67239;51.680;5.976;2023-02-07T01:06:22;103888.84;;;-0.46;100.00
66887;BME280;67239;51.680;5.976;2023-02-07T01:08:49;103890.53;;;-0.47;100.00
66887;BME280;67239;51.680;5.976;2023-02-07T01:11:16;103891.53;;;-0.44;100.00
66887;BME280;67239;51.680;5.976;2023-02-07T01:13:44;103884.34;;;-0.49;100.00
66887;BME280;67239;51.680;5.976;2023-02-07T01:16:30;103867.69;;;-0.52;100.00
66887;BME280;67239;51.680;5.976;2023-02-07T01:19:03;103865.91;;;-0.53;100.00
66887;BME280;67239;51.680;5.976;2023-02-07T01:21:32;103877.25;;;-0.51;100.00
66887;BME280;67239;51.680;5.976;2023-02-07T01:24:00;103877.25;;;-0.51;100.00
66887;BME280;67239;51.680;5.976;2023-02-07T01:26:27;103881.44;;;-0.53;100.00
66887;BME280;67239;51.680;5.976;2023-02-07T01:28:55;103883.75;;;-0.58;100.00
66887;BME280;67239;51.680;5.976;2023-02-07T01:31:23;103885.16;;;-0.63;100.00
66887;BME280;67239;51.680;5.976;2023-02-07T01:33:55;103881.47;;;-0.67;100.00
66887;BME280;67239;51.680;5.976;2023-02-07T01:36:28;103879.38;;;-0.72;100.00
66887;BME280;67239;51.680;5.976;2023-02-07T01:38:56;103888.53;;;-0.77;100.00
66887;BME280;67239;51.680;5.976;2023-02-07T01:41:26;103896.78;;;-0.83;100.00
66887;BME280;67239;51.680;5.976;2023-02-07T01:44:06;103900.97;;;-0.85;100.00
66887;BME280;67239;51.680;5.976;2023-02-07T01:46:35;103900.66;;;-0.90;100.00
66887;BME280;67239;51.680;5.976;2023-02-07T01:49:06;103904.97;;;-0.90;100.00
66887;BME280;67239;51.680;5.976;2023-02-07T01:51:36;103898.88;;;-0.91;100.00
66887;BME280;67239;51.680;5.976;2023-02-07T01:54:12;103908.75;;;-0.99;100.00
66887;BME280;67239;51.680;5.976;2023-02-07T01:56:45;103912.59;;;-1.05;100.00
66887;BME280;67239;51.680;5.976;2023-02-07T01:59:17;103906.13;;;-1.12;100.00
66887;BME280;67239;51.680;5.976;2023-02-07T02:01:45;103908.19;;;-1.20;100.00
66887;BME280;67239;51.680;5.976;2023-02-07T02:04:13;103907.69;;;-1.28;99.93
66887;BME280;67239;51.680;5.976;2023-02-07T02:06:40;103905.44;;;-1.35;99.88
66887;BME280;67239;51.680;5.976;2023-02-07T02:09:11;103900.88;;;-1.39;99.77
66887;BME280;67239;51.680;5.976;2023-02-07T02:17:57;103919.31;;;-1.60;100.00
66887;BME280;67239;51.680;5.976;2023-02-07T02:32:50;103903.03;;;-1.70;100.00
66887;BME280;67239;51.680;5.976;2023-02-07T02:35:33;103909.66;;;-1.74;100.00
66887;BME280;67239;51.680;5.976;2023-02-07T02:38:14;103912.47;;;-1.71;100.00
66887;BME280;67239;51.680;5.976;2023-02-07T02:40:54;103913.69;;;-1.66;100.00
66887;BME280;67239;51.680;5.976;2023-02-07T02:43:30;103902.69;;;-1.63;100.00
66887;BME280;67239;51.680;5.976;2023-02-07T02:46:23;103904.56;;;-1.61;100.00
66887;BME280;67239;51.680;5.976;2023-02-07T02:48:59;103897.50;;;-1.63;100.00
66887;BME280;67239;51.680;5.976;2023-02-07T02:51:29;103900.88;;;-1.64;100.00
66887;BME280;67239;51.680;5.976;2023-02-07T02:53:59;103897.69;;;-1.60;100.00
66887;BME280;67239;51.680;5.976;2023-02-07T03:08:18;103905.41;;;-1.74;100.00
66887;BME280;67239;51.680;5.976;2023-02-07T03:11:00;103899.00;;;-1.79;100.00
66887;BME280;67239;51.680;5.976;2023-02-07T03:14:01;103896.41;;;-1.79;100.00
66887;BME280;67239;51.680;5.976;2023-02-07T03:16:51;103904.09;;;-1.80;100.00
66887;BME280;67239;51.680;5.976;2023-02-07T03:19:45;103909.34;;;-1.79;100.00
66887;BME280;67239;51.680;5.976;2023-02-07T03:22:21;103914.44;;;-1.80;100.00
66887;BME280;67239;51.680;5.976;2023-02-07T03:24:55;103906.75;;;-1.79;100.00
66887;BME280;67239;51.680;5.976;2023-02-07T03:27:29;103892.25;;;-1.77;100.00
66887;BME280;67239;51.680;5.976;2023-02-07T03:30:03;103894.84;;;-1.77;100.00
66887;BME280;67239;51.680;5.976;2023-02-07T03:32:37;103897.22;;;-1.80;100.00
66887;BME280;67239;51.680;5.976;2023-02-07T03:35:29;103908.34;;;-1.81;100.00
66887;BME280;67239;51.680;5.976;2023-02-07T03:38:04;103910.72;;;-1.84;100.00
66887;BME280;67239;51.680;5.976;2023-02-07T03:40:38;103904.75;;;-1.83;100.00
66887;BME280;67239;51.680;5.976;2023-02-07T03:43:12;103906.22;;;-1.87;100.00
66887;BME280;67239;51.680;5.976;2023-02-07T03:45:44;103904.31;;;-1.89;100.00
66887;BME280;67239;51.680;5.976;2023-02-07T03:48:11;103899.94;;;-1.90;100.00
66887;BME280;67239;51.680;5.976;2023-02-07T03:50:38;103903.13;;;-1.94;100.00
66887;BME280;67239;51.680;5.976;2023-02-07T03:53:05;103890.84;;;-1.97;100.00
66887;BME280;67239;51.680;5.976;2023-02-07T03:55:32;103895.03;;;-1.99;100.00
66887;BME280;67239;51.680;5.976;2023-02-07T03:58:01;103892.31;;;-2.00;100.00
66887;BME280;67239;51.680;5.976;2023-02-07T04:00:28;103898.41;;;-2.00;100.00
66887;BME280;67239;51.680;5.976;2023-02-07T04:02:55;103888.84;;;-2.01;100.00
66887;BME280;67239;51.680;5.976;2023-02-07T04:05:22;103898.19;;;-2.03;100.00
66887;BME280;67239;51.680;5.976;2023-02-07T04:07:49;103898.88;;;-2.06;100.00
66887;BME280;67239;51.680;5.976;2023-02-07T04:10:16;103897.06;;;-2.07;100.00
66887;BME280;67239;51.680;5.976;2023-02-07T04:12:44;103896.94;;;-2.08;100.00
66887;BME280;67239;51.680;5.976;2023-02-07T04:15:11;103899.31;;;-2.11;100.00
66887;BME280;67239;51.680;5.976;2023-02-07T04:17:39;103892.34;;;-2.12;100.00
66887;BME280;67239;51.680;5.976;2023-02-07T04:20:06;103887.97;;;-2.13;100.00
66887;BME280;67239;51.680;5.976;2023-02-07T04:22:34;103885.16;;;-2.16;100.00
66887;BME280;67239;51.680;5.976;2023-02-07T04:25:01;103884.28;;;-2.17;100.00
66887;BME280;67239;51.680;5.976;2023-02-07T04:27:28;103878.97;;;-2.19;100.00
66887;BME280;67239;51.680;5.976;2023-02-07T04:29:55;103891.91;;;-2.19;100.00
66887;BME280;67239;51.680;5.976;2023-02-07T04:32:22;103885.28;;;-2.15;100.00
66887;BME280;67239;51.680;5.976;2023-02-07T04:34:49;103884.69;;;-2.11;100.00
66887;BME280;67239;51.680;5.976;2023-02-07T04:37:16;103884.25;;;-2.05;100.00
66887;BME280;67239;51.680;5.976;2023-02-07T04:39:43;103882.66;;;-2.03;100.00
66887;BME280;67239;51.680;5.976;2023-02-07T04:42:11;103872.66;;;-1.98;100.00
66887;BME280;67239;51.680;5.976;2023-02-07T04:44:38;103864.00;;;-1.99;100.00
66887;BME280;67239;51.680;5.976;2023-02-07T04:47:05;103868.25;;;-1.99;100.00
66887;BME280;67239;51.680;5.976;2023-02-07T04:49:33;103866.28;;;-2.04;100.00
66887;BME280;67239;51.680;5.976;2023-02-07T04:52:00;103865.34;;;-2.04;100.00
66887;BME280;67239;51.680;5.976;2023-02-07T04:54:27;103865.25;;;-2.06;100.00
66887;BME280;67239;51.680;5.976;2023-02-07T04:56:55;103865.34;;;-2.04;100.00
66887;BME280;67239;51.680;5.976;2023-02-07T04:59:22;103872.88;;;-2.07;100.00
66887;BME280;67239;51.680;5.976;2023-02-07T05:01:49;103873.56;;;-2.10;100.00
66887;BME280;67239;51.680;5.976;2023-02-07T05:04:16;103864.94;;;-2.10;100.00
66887;BME280;67239;51.680;5.976;2023-02-07T05:06:43;103865.41;;;-2.16;100.00
66887;BME280;67239;51.680;5.976;2023-02-07T05:09:10;103863.47;;;-2.19;100.00
66887;BME280;67239;51.680;5.976;2023-02-07T05:11:37;103866.66;;;-2.23;100.00
66887;BME280;67239;51.680;5.976;2023-02-07T05:14:04;103874.94;;;-2.27;100.00
66887;BME280;67239;51.680;5.976;2023-02-07T05:16:31;103878.00;;;-2.32;100.00
66887;BME280;67239;51.680;5.976;2023-02-07T05:18:58;103869.91;;;-2.37;100.00
66887;BME280;67239;51.680;5.976;2023-02-07T05:21:25;103885.22;;;-2.40;100.00
66887;BME280;67239;51.680;5.976;2023-02-07T05:23:52;103892.97;;;-2.40;100.00
66887;BME280;67239;51.680;5.976;2023-02-07T05:26:19;103877.25;;;-2.43;100.00
66887;BME280;67239;51.680;5.976;2023-02-07T05:28:46;103884.88;;;-2.45;100.00
66887;BME280;67239;51.680;5.976;2023-02-07T05:31:13;103878.72;;;-2.47;100.00
66887;BME280;67239;51.680;5.976;2023-02-07T05:33:40;103889.81;;;-2.48;100.00
66887;BME280;67239;51.680;5.976;2023-02-07T05:36:08;103894.06;;;-2.48;100.00
66887;BME280;67239;51.680;5.976;2023-02-07T05:38:35;103893.19;;;-2.49;100.00
66887;BME280;67239;51.680;5.976;2023-02-07T05:41:02;103899.94;;;-2.51;100.00
66887;BME280;67239;51.680;5.976;2023-02-07T05:43:29;103905.78;;;-2.54;100.00
66887;BME280;67239;51.680;5.976;2023-02-07T05:45:56;103899.59;;;-2.56;100.00
66887;BME280;67239;51.680;5.976;2023-02-07T05:48:23;103891.28;;;-2.52;100.00
66887;BME280;67239;51.680;5.976;2023-02-07T05:50:50;103902.59;;;-2.26;100.00
66887;BME280;67239;51.680;5.976;2023-02-07T05:53:17;103897.75;;;-2.09;100.00
66887;BME280;67239;51.680;5.976;2023-02-07T05:55:44;103901.78;;;-2.13;100.00
66887;BME280;67239;51.680;5.976;2023-02-07T05:58:11;103902.38;;;-2.17;100.00
66887;BME280;67239;51.680;5.976;2023-02-07T06:00:38;103903.50;;;-2.13;100.00
66887;BME280;67239;51.680;5.976;2023-02-07T06:03:13;103912.47;;;-2.20;100.00
66887;BME280;67239;51.680;5.976;2023-02-07T06:05:40;103911.81;;;-2.29;100.00
66887;BME280;67239;51.680;5.976;2023-02-07T06:08:07;103906.19;;;-2.24;100.00
66887;BME280;67239;51.680;5.976;2023-02-07T06:10:34;103909.22;;;-2.17;100.00
66887;BME280;67239;51.680;5.976;2023-02-07T06:13:01;103906.63;;;-2.17;100.00
66887;BME280;67239;51.680;5.976;2023-02-07T06:15:31;103907.53;;;-2.17;100.00
66887;BME280;67239;51.680;5.976;2023-02-07T06:17:58;103910.00;;;-2.19;100.00
66887;BME280;67239;51.680;5.976;2023-02-07T06:20:25;103908.88;;;-2.22;100.00
66887;BME280;67239;51.680;5.976;2023-02-07T06:22:52;103903.84;;;-2.32;99.39
66887;BME280;67239;51.680;5.976;2023-02-07T06:25:19;103909.81;;;-2.45;99.18
66887;BME280;67239;51.680;5.976;2023-02-07T06:27:47;103915.69;;;-2.60;99.15
66887;BME280;67239;51.680;5.976;2023-02-07T06:30:14;103918.47;;;-2.69;99.08
66887;BME280;67239;51.680;5.976;2023-02-07T06:32:41;103921.94;;;-2.80;99.09
66887;BME280;67239;51.680;5.976;2023-02-07T06:35:08;103927.44;;;-2.87;99.12
66887;BME280;67239;51.680;5.976;2023-02-07T06:37:35;103925.16;;;-2.94;99.30
66887;BME280;67239;51.680;5.976;2023-02-07T06:40:03;103922.38;;;-2.98;99.37
66887;BME280;67239;51.680;5.976;2023-02-07T06:42:30;103924.03;;;-2.98;99.75
66887;BME280;67239;51.680;5.976;2023-02-07T06:44:57;103923.25;;;-2.97;99.95
66887;BME280;67239;51.680;5.976;2023-02-07T06:47:24;103930.31;;;-2.94;99.95
66887;BME280;67239;51.680;5.976;2023-02-07T06:49:51;103925.16;;;-2.94;100.00
66887;BME280;67239;51.680;5.976;2023-02-07T06:52:18;103921.69;;;-2.95;100.00
66887;BME280;67239;51.680;5.976;2023-02-07T06:54:45;103926.84;;;-2.95;100.00
66887;BME280;67239;51.680;5.976;2023-02-07T06:57:12;103927.63;;;-2.96;100.00
66887;BME280;67239;51.680;5.976;2023-02-07T06:59:39;103943.13;;;-2.96;100.00
66887;BME280;67239;51.680;5.976;2023-02-07T07:02:06;103942.34;;;-2.95;100.00
66887;BME280;67239;51.680;5.976;2023-02-07T07:04:33;103951.91;;;-2.94;100.00
66887;BME280;67239;51.680;5.976;2023-02-07T07:07:00;103946.72;;;-2.94;100.00
66887;BME280;67239;51.680;5.976;2023-02-07T07:09:27;103944.03;;;-2.95;100.00
66887;BME280;67239;51.680;5.976;2023-02-07T07:11:54;103946.63;;;-2.95;100.00
66887;BME280;67239;51.680;5.976;2023-02-07T07:14:21;103951.66;;;-2.97;100.00
66887;BME280;67239;51.680;5.976;2023-02-07T07:16:48;103953.56;;;-2.94;100.00
66887;BME280;67239;51.680;5.976;2023-02-07T07:19:15;103965.59;;;-2.95;100.00
66887;BME280;67239;51.680;5.976;2023-02-07T07:21:42;103982.88;;;-2.94;100.00
66887;BME280;67239;51.680;5.976;2023-02-07T07:24:09;103976.00;;;-2.93;100.00
66887;BME280;67239;51.680;5.976;2023-02-07T07:26:36;103982.31;;;-2.90;100.00
66887;BME280;67239;51.680;5.976;2023-02-07T07:29:16;103991.31;;;-2.85;100.00
66887;BME280;67239;51.680;5.976;2023-02-07T07:31:45;103985.72;;;-2.79;100.00
66887;BME280;67239;51.680;5.976;2023-02-07T07:34:13;103990.88;;;-2.79;100.00
66887;BME280;67239;51.680;5.976;2023-02-07T07:36:40;103988.31;;;-2.79;100.00
66887;BME280;67239;51.680;5.976;2023-02-07T07:39:07;103991.00;;;-2.77;100.00
66887;BME280;67239;51.680;5.976;2023-02-07T07:41:35;103998.75;;;-2.77;100.00
66887;BME280;67239;51.680;5.976;2023-02-07T07:44:02;103997.19;;;-2.75;100.00
66887;BME280;67239;51.680;5.976;2023-02-07T07:46:29;103993.56;;;-2.77;100.00
66887;BME280;67239;51.680;5.976;2023-02-07T07:48:56;103996.84;;;-2.80;100.00
66887;BME280;67239;51.680;5.976;2023-02-07T07:51:23;104001.91;;;-2.82;100.00
66887;BME280;67239;51.680;5.976;2023-02-07T07:53:50;103996.16;;;-2.77;100.00
66887;BME280;67239;51.680;5.976;2023-02-07T07:56:17;103992.69;;;-2.78;100.00
66887;BME280;67239;51.680;5.976;2023-02-07T07:58:44;103999.66;;;-2.77;100.00
66887;BME280;67239;51.680;5.976;2023-02-07T08:01:11;103991.13;;;-2.76;100.00
66887;BME280;67239;51.680;5.976;2023-02-07T08:03:38;103997.19;;;-2.75;99.67
66887;BME280;67239;51.680;5.976;2023-02-07T08:06:06;103993.81;;;-2.74;99.81
66887;BME280;67239;51.680;5.976;2023-02-07T08:08:33;103994.06;;;-2.71;99.81
66887;BME280;67239;51.680;5.976;2023-02-07T08:11:03;103994.25;;;-2.68;99.40
66887;BME280;67239;51.680;5.976;2023-02-07T08:13:31;104003.28;;;-2.63;99.62
66887;BME280;67239;51.680;5.976;2023-02-07T08:16:00;103994.16;;;-2.58;99.49
66887;BME280;67239;51.680;5.976;2023-02-07T08:18:28;104005.88;;;-2.51;99.30
66887;BME280;67239;51.680;5.976;2023-02-07T08:20:55;104000.94;;;-2.48;99.42
66887;BME280;67239;51.680;5.976;2023-02-07T08:23:22;104003.97;;;-2.42;99.12
66887;BME280;67239;51.680;5.976;2023-02-07T08:25:49;104004.75;;;-2.43;99.07
66887;BME280;67239;51.680;5.976;2023-02-07T08:28:18;104008.25;;;-2.42;99.11
66887;BME280;67239;51.680;5.976;2023-02-07T08:30:45;104010.25;;;-2.38;98.92
66887;BME280;67239;51.680;5.976;2023-02-07T08:33:16;104011.50;;;-2.33;98.92
66887;BME280;67239;51.680;5.976;2023-02-07T08:35:43;104006.78;;;-2.27;98.91
66887;BME280;67239;51.680;5.976;2023-02-07T08:38:10;104015.34;;;-2.16;99.19
66887;BME280;67239;51.680;5.976;2023-02-07T08:40:38;104011.63;;;-2.08;99.15
66887;BME280;67239;51.680;5.976;2023-02-07T08:43:06;104007.13;;;-1.98;99.08
66887;BME280;67239;51.680;5.976;2023-02-07T08:45:38;104011.38;;;-1.87;98.93
66887;BME280;67239;51.680;5.976;2023-02-07T08:48:07;104018.44;;;-1.84;98.64
66887;BME280;67239;51.680;5.976;2023-02-07T08:50:34;104016.97;;;-1.81;98.39
66887;BME280;67239;51.680;5.976;2023-02-07T08:53:01;104014.41;;;-1.81;98.48
66887;BME280;67239;51.680;5.976;2023-02-07T08:55:28;104020.91;;;-1.74;98.19
66887;BME280;67239;51.680;5.976;2023-02-07T08:57:56;104017.78;;;-1.70;98.22
66887;BME280;67239;51.680;5.976;2023-02-07T09:00:23;104019.75;;;-1.66;97.92
66887;BME280;67239;51.680;5.976;2023-02-07T09:02:50;104017.88;;;-1.68;97.77
66887;BME280;67239;51.680;5.976;2023-02-07T09:05:17;104009.22;;;-1.69;97.60
66887;BME280;67239;51.680;5.976;2023-02-07T09:07:44;104008.31;;;-1.69;97.68
66887;BME280;67239;51.680;5.976;2023-02-07T09:10:11;104004.94;;;-1.68;97.58
66887;BME280;67239;51.680;5.976;2023-02-07T09:12:38;104001.00;;;-1.63;97.32
66887;BME280;67239;51.680;5.976;2023-02-07T09:15:06;104005.56;;;-1.59;97.45
66887;BME280;67239;51.680;5.976;2023-02-07T09:17:33;103999.72;;;-1.57;97.24
66887;BME280;67239;51.680;5.976;2023-02-07T09:20:00;103993.88;;;-1.54;97.08
66887;BME280;67239;51.680;5.976;2023-02-07T09:22:27;103990.38;;;-1.54;97.03
66887;BME280;67239;51.680;5.976;2023-02-07T09:24:54;103981.91;;;-1.52;97.19
66887;BME280;67239;51.680;5.976;2023-02-07T09:27:22;103985.53;;;-1.50;97.19
66887;BME280;67239;51.680;5.976;2023-02-07T09:29:49;103982.78;;;-1.39;97.46
66887;BME280;67239;51.680;5.976;2023-02-07T09:32:16;103977.38;;;-1.31;97.49
66887;BME280;67239;51.680;5.976;2023-02-07T09:34:43;103980.59;;;-1.21;97.44
66887;BME280;67239;51.680;5.976;2023-02-07T09:37:10;103976.81;;;-1.13;97.35
66887;BME280;67239;51.680;5.976;2023-02-07T09:39:37;103987.72;;;-1.05;97.39
66887;BME280;67239;51.680;5.976;2023-02-07T09:42:16;103971.00;;;-0.97;97.56
66887;BME280;67239;51.680;5.976;2023-02-07T09:45:08;103976.00;;;-0.87;97.35
66887;BME280;67239;51.680;5.976;2023-02-07T09:47:43;103965.84;;;-0.84;97.35
66887;BME280;67239;51.680;5.976;2023-02-07T09:50:29;103968.28;;;-0.73;97.42
66887;BME280;67239;51.680;5.976;2023-02-07T09:53:05;103966.16;;;-0.66;97.35
66887;BME280;67239;51.680;5.976;2023-02-07T09:55:47;103963.28;;;-0.57;97.30
66887;BME280;67239;51.680;5.976;2023-02-07T09:58:40;103956.75;;;-0.52;96.94
66887;BME280;67239;51.680;5.976;2023-02-07T10:01:18;103964.91;;;-0.45;96.94
66887;BME280;67239;51.680;5.976;2023-02-07T10:04:12;103968.09;;;-0.36;96.77
66887;BME280;67239;51.680;5.976;2023-02-07T10:06:47;103971.06;;;-0.30;96.80
66887;BME280;67239;51.680;5.976;2023-02-07T10:09:24;103974.16;;;-0.22;96.71
66887;BME280;67239;51.680;5.976;2023-02-07T10:12:03;103966.09;;;-0.13;96.31
66887;BME280;67239;51.680;5.976;2023-02-07T10:18:22;103966.88;;;-0.01;96.12
66887;BME280;67239;51.680;5.976;2023-02-07T10:21:04;103957.97;;;0.09;95.86
66887;BME280;67239;51.680;5.976;2023-02-07T10:29:31;103962.41;;;0.38;95.63
66887;BME280;67239;51.680;5.976;2023-02-07T10:32:35;103956.06;;;0.48;95.15
66887;BME280;67239;51.680;5.976;2023-02-07T10:35:14;103964.41;;;0.57;94.99
66887;BME280;67239;51.680;5.976;2023-02-07T10:37:46;103959.91;;;0.68;95.06
66887;BME280;67239;51.680;5.976;2023-02-07T10:43:02;103955.09;;;0.89;93.52
66887;BME280;67239;51.680;5.976;2023-02-07T10:45:41;103953.75;;;0.96;93.15
66887;BME280;67239;51.680;5.976;2023-02-07T10:48:14;103956.81;;;1.04;92.89
66887;BME280;67239;51.680;5.976;2023-02-07T10:50:42;103965.16;;;1.13;93.32
66887;BME280;67239;51.680;5.976;2023-02-07T10:53:09;103966.75;;;1.26;93.25
66887;BME280;67239;51.680;5.976;2023-02-07T10:55:45;103958.88;;;1.39;93.16
66887;BME280;67239;51.680;5.976;2023-02-07T10:58:22;103953.28;;;1.48;92.58
66887;BME280;67239;51.680;5.976;2023-02-07T11:00:51;103951.31;;;1.59;91.06
66887;BME280;67239;51.680;5.976;2023-02-07T11:03:22;103958.84;;;1.69;90.18
66887;BME280;67239;51.680;5.976;2023-02-07T11:05:55;103950.50;;;1.75;89.74
66887;BME280;67239;51.680;5.976;2023-02-07T11:08:33;103949.28;;;1.85;89.16
66887;BME280;67239;51.680;5.976;2023-02-07T11:14:04;103944.28;;;2.05;88.51
66887;BME280;67239;51.680;5.976;2023-02-07T11:16:33;103938.78;;;2.15;87.72
66887;BME280;67239;51.680;5.976;2023-02-07T11:19:05;103929.84;;;2.26;87.69
66887;BME280;67239;51.680;5.976;2023-02-07T11:21:41;103938.25;;;2.37;88.26
66887;BME280;67239;51.680;5.976;2023-02-07T11:24:24;103932.94;;;2.52;87.96
66887;BME280;67239;51.680;5.976;2023-02-07T11:26:59;103931.88;;;2.65;85.96
66887;BME280;67239;51.680;5.976;2023-02-07T11:29:30;103932.28;;;2.73;85.83
66887;BME280;67239;51.680;5.976;2023-02-07T11:32:03;103928.34;;;2.81;86.10
66887;BME280;67239;51.680;5.976;2023-02-07T11:34:44;103926.38;;;2.93;82.89
66887;BME280;67239;51.680;5.976;2023-02-07T11:37:20;103921.47;;;3.00;82.45
66887;BME280;67239;51.680;5.976;2023-02-07T11:39:48;103919.31;;;3.09;80.62
66887;BME280;67239;51.680;5.976;2023-02-07T11:42:24;103915.38;;;3.17;78.96
66887;BME280;67239;51.680;5.976;2023-02-07T11:45:02;103919.94;;;3.21;78.78
66887;BME280;67239;51.680;5.976;2023-02-07T11:47:32;103914.09;;;3.25;77.36
66887;BME280;67239;51.680;5.976;2023-02-07T11:50:03;103910.78;;;3.30;77.71
66887;BME280;67239;51.680;5.976;2023-02-07T11:52:36;103914.53;;;3.35;78.73
66887;BME280;67239;51.680;5.976;2023-02-07T11:55:08;103921.81;;;3.42;79.40
66887;BME280;67239;51.680;5.976;2023-02-07T11:57:44;103911.84;;;3.51;79.21
66887;BME280;67239;51.680;5.976;2023-02-07T12:00:19;103901.91;;;3.62;78.94
66887;BME280;67239;51.680;5.976;2023-02-07T12:02:58;103898.91;;;3.72;78.80
66887;BME280;67239;51.680;5.976;2023-02-07T12:05:32;103908.97;;;3.83;77.88
66887;BME280;67239;51.680;5.976;2023-02-07T12:08:10;103901.44;;;3.89;77.12
66887;BME280;67239;51.680;5.976;2023-02-07T12:10:45;103909.63;;;3.97;77.56
66887;BME280;67239;51.680;5.976;2023-02-07T12:13:26;103901.31;;;4.06;76.29
66887;BME280;67239;51.680;5.976;2023-02-07T12:16:07;103897.94;;;4.08;76.31
66887;BME280;67239;51.680;5.976;2023-02-07T12:18:45;103895.69;;;4.16;73.52
66887;BME280;67239;51.680;5.976;2023-02-07T12:21:32;103898.28;;;4.16;72.99
66887;BME280;67239;51.680;5.976;2023-02-07T12:24:12;103893.97;;;4.16;73.23
66887;BME280;67239;51.680;5.976;2023-02-07T12:26:54;103892.31;;;4.18;72.36
66887;BME280;67239;51.680;5.976;2023-02-07T12:32:24;103880.72;;;4.31;74.40
66887;BME280;67239;51.680;5.976;2023-02-07T12:38:15;103873.06;;;4.56;73.48
66887;BME280;67239;51.680;5.976;2023-02-07T12:40:54;103881.09;;;4.60;72.73
66887;BME280;67239;51.680;5.976;2023-02-07T12:43:33;103878.69;;;4.65;70.98
66887;BME280;67239;51.680;5.976;2023-02-07T12:46:34;103877.97;;;4.69;70.05
66887;BME280;67239;51.680;5.976;2023-02-07T12:55:39;103883.66;;;4.80;70.54
66887;BME280;67239;51.680;5.976;2023-02-07T12:59:07;103886.53;;;4.86;68.76
66887;BME280;67239;51.680;5.976;2023-02-07T13:08:37;103877.56;;;5.01;68.69
66887;BME280;67239;51.680;5.976;2023-02-07T13:11:24;103881.25;;;5.06;67.99
66887;BME280;67239;51.680;5.976;2023-02-07T13:16:58;103875.38;;;5.11;66.76
66887;BME280;67239;51.680;5.976;2023-02-07T13:22:52;103874.75;;;5.17;67.01
66887;BME280;67239;51.680;5.976;2023-02-07T13:25:32;103869.78;;;5.23;66.49
66887;BME280;67239;51.680;5.976;2023-02-07T13:28:08;103877.72;;;5.26;66.90
66887;BME280;67239;51.680;5.976;2023-02-07T13:30:45;103871.66;;;5.27;64.54
66887;BME280;67239;51.680;5.976;2023-02-07T13:33:37;103864.66;;;5.26;64.35
66887;BME280;67239;51.680;5.976;2023-02-07T13:36:14;103857.53;;;5.22;62.60
66887;BME280;67239;51.680;5.976;2023-02-07T13:39:02;103848.72;;;5.20;63.05
66887;BME280;67239;51.680;5.976;2023-02-07T13:44:21;103848.06;;;5.26;63.03
66887;BME280;67239;51.680;5.976;2023-02-07T13:47:18;103846.09;;;5.20;61.84
66887;BME280;67239;51.680;5.976;2023-02-07T13:53:18;103843.47;;;5.20;63.51
66887;BME280;67239;51.680;5.976;2023-02-07T13:55:59;103849.72;;;5.24;64.46
66887;BME280;67239;51.680;5.976;2023-02-07T14:01:23;103840.13;;;5.24;61.08
66887;BME280;67239;51.680;5.976;2023-02-07T14:04:12;103840.88;;;5.20;59.38
66887;BME280;67239;51.680;5.976;2023-02-07T14:06:54;103835.50;;;5.17;59.97
66887;BME280;67239;51.680;5.976;2023-02-07T14:09:52;103833.66;;;5.15;59.71
66887;BME280;67239;51.680;5.976;2023-02-07T14:12:25;103836.22;;;5.13;61.31
66887;BME280;67239;51.680;5.976;2023-02-07T14:14:54;103839.09;;;5.19;60.48
66887;BME280;67239;51.680;5.976;2023-02-07T14:19:56;103830.81;;;5.31;61.85
66887;BME280;67239;51.680;5.976;2023-02-07T14:27:37;103832.59;;;5.32;60.83
66887;BME280;67239;51.680;5.976;2023-02-07T14:36:16;103837.75;;;5.29;60.21
66887;BME280;67239;51.680;5.976;2023-02-07T14:39:02;103837.78;;;5.31;59.47
66887;BME280;67239;51.680;5.976;2023-02-07T14:41:32;103837.84;;;5.32;58.54
66887;BME280;67239;51.680;5.976;2023-02-07T14:44:05;103838.63;;;5.29;57.70
66887;BME280;67239;51.680;5.976;2023-02-07T14:46:55;103841.38;;;5.33;59.05